Time;durP1;ratioP1;P1;durP2;ratioP2;P2;SDS_P1;SDS_P2;PMS_P1;PMS_P2;Temp;Humidity;BMP_temperature;BMP_pressure;BME280_temperature;BME280_humidity;BME280_pressure;Samples;Min_cycle;Max_cycle;Signal;HPM_P1;HPM_P2
2023/10/26 00:00:49;;;;;;;0.50;0.20;;;;;;;12.26;100.00;95157.59;5111759;28;20208;-57
2023/10/26 00:03:15;;;;;;;0.30;0.30;;;;;;;12.27;100.00;95169.84;5112880;28;20193;-57
2023/10/26 00:05:41;;;;;;;0.50;0.30;;;;;;;12.28;100.00;95160.88;5115162;28;20189;-57
2023/10/26 00:08:08;;;;;;;0.10;0.10;;;;;;;12.28;100.00;95166.19;5114582;28;20200;-57
2023/10/26 00:10:34;;;;;;;0.10;0.10;;;;;;;12.31;100.00;95149.91;5114745;28;20201;-57
2023/10/26 00:13:02;;;;;;;0.30;0.30;;;;;;;12.36;100.00;95147.50;5116007;28;20201;-57
2023/10/26 00:15:29;;;;;;;1.13;0.10;;;;;;;12.33;100.00;95147.88;5116670;28;20232;-58
2023/10/26 00:17:55;;;;;;;0.27;0.07;;;;;;;12.36;100.00;95147.50;5115324;28;20205;-58
2023/10/26 00:20:21;;;;;;;0.20;0.20;;;;;;;12.36;100.00;95136.91;5115849;28;20209;-60
2023/10/26 00:22:48;;;;;;;0.23;0.23;;;;;;;12.37;100.00;95133.22;5111495;28;20552;-56
2023/10/26 00:25:15;;;;;;;0.20;0.20;;;;;;;12.39;100.00;95131.22;5112216;28;20197;-58
2023/10/26 00:27:41;;;;;;;0.23;0.23;;;;;;;12.44;100.00;95134.09;5111973;28;20205;-57
2023/10/26 00:30:11;;;;;;;0.13;0.13;;;;;;;12.44;100.00;95128.81;5110907;28;20229;-56
2023/10/26 00:32:38;;;;;;;1.27;0.20;;;;;;;12.43;100.00;95132.47;5111727;28;20201;-56
2023/10/26 00:35:07;;;;;;;1.00;0.13;;;;;;;12.40;100.00;95122.22;5111289;28;20235;-57
2023/10/26 00:37:33;;;;;;;0.20;0.20;;;;;;;12.41;100.00;95124.72;5111344;28;20201;-57
2023/10/26 00:40:00;;;;;;;0.10;0.10;;;;;;;12.52;100.00;95126.03;5110971;28;20204;-57
2023/10/26 00:42:26;;;;;;;0.33;0.10;;;;;;;12.48;100.00;95120.28;5111924;28;20208;-57
2023/10/26 00:44:56;;;;;;;0.00;0.00;;;;;;;12.43;100.00;95119.22;5092841;28;20232;-57
2023/10/26 00:47:25;;;;;;;0.10;0.10;;;;;;;12.44;100.00;95118.19;5111773;28;20205;-57
2023/10/26 00:49:51;;;;;;;1.00;0.10;;;;;;;12.35;100.00;95119.34;5111847;28;20246;-57
2023/10/26 00:52:18;;;;;;;0.30;0.30;;;;;;;12.37;100.00;95118.16;5111706;28;20201;-57
2023/10/26 00:54:44;;;;;;;0.47;0.20;;;;;;;12.36;100.00;95113.06;5110294;28;20224;-57
2023/10/26 00:57:11;;;;;;;0.10;0.10;;;;;;;12.38;100.00;95126.91;5112768;28;20205;-58
2023/10/26 00:59:38;;;;;;;0.27;0.10;;;;;;;12.30;100.00;95111.16;5120529;28;20208;-58
2023/10/26 01:02:05;;;;;;;0.40;0.20;;;;;;;12.35;100.00;95114.88;5120797;28;20219;-57
2023/10/26 01:04:33;;;;;;;0.27;0.20;;;;;;;12.36;100.00;95115.69;5120210;28;20210;-57
2023/10/26 01:06:59;;;;;;;0.30;0.10;;;;;;;12.33;100.00;95110.75;5120572;28;20212;-58
2023/10/26 01:09:26;;;;;;;0.50;0.10;;;;;;;12.39;100.00;95115.31;5116914;28;20196;-56
2023/10/26 01:11:52;;;;;;;0.30;0.20;;;;;;;12.34;100.00;95120.34;5115001;28;20201;-57
2023/10/26 01:14:19;;;;;;;0.30;0.10;;;;;;;12.33;100.00;95129.31;5115435;28;20270;-57
2023/10/26 01:16:46;;;;;;;0.07;0.07;;;;;;;12.30;100.00;95127.03;5115159;28;20217;-57
2023/10/26 01:19:12;;;;;;;0.10;0.10;;;;;;;12.26;100.00;95134.56;5115270;28;20201;-57
2023/10/26 01:21:50;;;;;;;0.30;0.20;;;;;;;12.21;100.00;95134.31;5118301;28;20197;-58
2023/10/26 01:24:16;;;;;;;1.50;0.20;;;;;;;12.19;100.00;95136.31;5121120;28;20189;-58
2023/10/26 01:26:42;;;;;;;0.87;0.30;;;;;;;12.18;100.00;95126.75;5119998;28;20205;-58
2023/10/26 01:29:09;;;;;;;0.67;0.20;;;;;;;12.12;100.00;95116.06;5117210;28;20200;-57
2023/10/26 01:31:35;;;;;;;0.83;0.20;;;;;;;12.07;100.00;95121.13;5116839;28;20193;-57
2023/10/26 01:34:02;;;;;;;0.20;0.20;;;;;;;12.12;100.00;95108.13;5118069;28;20201;-57
2023/10/26 01:36:28;;;;;;;0.87;0.10;;;;;;;12.06;100.00;95108.88;5119546;28;20248;-57
2023/10/26 01:38:56;;;;;;;0.20;0.20;;;;;;;12.05;100.00;95102.75;5115765;28;20201;-57
2023/10/26 01:41:23;;;;;;;0.20;0.20;;;;;;;12.01;100.00;95103.34;5115655;28;20531;-58
2023/10/26 01:43:49;;;;;;;0.50;0.23;;;;;;;12.00;100.00;95096.41;5115065;28;20225;-57
2023/10/26 01:46:16;;;;;;;0.20;0.10;;;;;;;12.01;100.00;95095.41;5117110;28;20209;-57
2023/10/26 01:48:42;;;;;;;0.63;0.30;;;;;;;11.95;100.00;95081.06;5116772;28;20535;-58
2023/10/26 01:51:09;;;;;;;0.20;0.20;;;;;;;11.94;100.00;95087.38;5115900;28;20236;-57
2023/10/26 01:53:35;;;;;;;0.77;0.27;;;;;;;11.89;100.00;95077.38;5116208;28;20197;-57
2023/10/26 01:56:03;;;;;;;2.03;0.57;;;;;;;11.89;100.00;95080.00;5112962;28;20217;-57
2023/10/26 01:58:30;;;;;;;0.43;0.30;;;;;;;11.85;100.00;95070.81;5114644;28;20223;-57
2023/10/26 02:00:58;;;;;;;3.00;0.30;;;;;;;11.86;100.00;95071.63;5114162;28;20216;-57
2023/10/26 02:03:24;;;;;;;0.10;0.10;;;;;;;11.88;100.00;95064.28;5114690;28;20223;-57
2023/10/26 02:05:51;;;;;;;0.53;0.10;;;;;;;11.92;100.00;95061.09;5114067;28;20259;-57
2023/10/26 02:08:17;;;;;;;0.17;0.17;;;;;;;11.93;100.00;95062.72;5115394;28;20201;-57
2023/10/26 02:10:45;;;;;;;0.30;0.10;;;;;;;11.95;100.00;95062.53;5113881;28;20532;-57
2023/10/26 02:13:12;;;;;;;0.10;0.10;;;;;;;11.98;100.00;95051.53;5114541;28;20217;-56
2023/10/26 02:15:39;;;;;;;0.20;0.17;;;;;;;12.00;100.00;95048.72;5114135;28;20220;-56
2023/10/26 02:18:05;;;;;;;0.53;0.10;;;;;;;12.01;100.00;95039.78;5113972;28;20214;-57
2023/10/26 02:20:32;;;;;;;0.10;0.10;;;;;;;12.03;100.00;95037.75;5113729;28;20197;-57
2023/10/26 02:22:58;;;;;;;0.10;0.10;;;;;;;12.04;100.00;95032.25;5113503;28;20215;-57
2023/10/26 02:25:25;;;;;;;1.13;0.13;;;;;;;12.02;100.00;95038.75;5113309;28;20224;-57
2023/10/26 02:27:51;;;;;;;0.10;0.10;;;;;;;11.97;100.00;95042.78;5113714;28;20602;-57
2023/10/26 02:30:19;;;;;;;0.30;0.20;;;;;;;11.95;100.00;95039.50;5114193;28;20197;-56
2023/10/26 02:32:48;;;;;;;0.40;0.17;;;;;;;11.92;100.00;95034.59;5113672;28;20205;-57
2023/10/26 02:35:16;;;;;;;1.00;0.10;;;;;;;11.92;100.00;95033.78;5113442;28;20205;-57
2023/10/26 02:37:43;;;;;;;0.13;0.13;;;;;;;11.92;100.00;95034.59;5113472;28;20321;-56
2023/10/26 02:40:10;;;;;;;0.30;0.10;;;;;;;11.89;100.00;95034.97;5113133;28;20197;-57
2023/10/26 02:42:38;;;;;;;0.10;0.10;;;;;;;11.90;100.00;95044.53;5112709;28;20194;-57
2023/10/26 02:45:06;;;;;;;2.00;0.20;;;;;;;11.85;100.00;95043.50;5112759;28;20310;-58
2023/10/26 02:47:34;;;;;;;0.10;0.10;;;;;;;11.85;100.00;95039.00;5113173;28;20215;-57
2023/10/26 02:50:01;;;;;;;0.47;0.13;;;;;;;11.83;100.00;95035.72;5113051;28;20205;-59
2023/10/26 02:52:28;;;;;;;0.40;0.17;;;;;;;11.82;100.00;95031.47;5113399;28;20193;-57
2023/10/26 02:54:54;;;;;;;0.10;0.00;;;;;;;11.80;100.00;95022.03;5113522;28;20539;-57
2023/10/26 02:57:21;;;;;;;0.30;0.10;;;;;;;11.80;100.00;95030.81;5111959;28;20217;-58
2023/10/26 02:59:47;;;;;;;0.07;0.07;;;;;;;11.81;100.00;95024.50;5113249;28;21017;-56
2023/10/26 03:02:13;;;;;;;1.43;0.20;;;;;;;11.79;100.00;95025.72;5112492;28;20216;-57
2023/10/26 03:04:42;;;;;;;0.37;0.30;;;;;;;11.77;100.00;95025.91;5117197;28;20201;-57
2023/10/26 03:07:11;;;;;;;1.33;0.43;;;;;;;11.78;100.00;95024.06;5112832;28;20643;-58
2023/10/26 03:09:37;;;;;;;0.40;0.30;;;;;;;11.85;100.00;95023.13;5113603;28;20201;-58
2023/10/26 03:12:04;;;;;;;1.70;0.27;;;;;;;11.79;100.00;95023.91;5113067;28;20201;-56
2023/10/26 03:14:31;;;;;;;1.10;0.20;;;;;;;11.81;100.00;95023.69;5113487;28;20229;-57
2023/10/26 03:16:58;;;;;;;1.03;0.20;;;;;;;11.78;100.00;95032.03;5113369;28;20216;-57
2023/10/26 03:19:24;;;;;;;0.50;0.20;;;;;;;11.77;100.00;95036.50;5112717;28;20246;-57
2023/10/26 03:21:52;;;;;;;2.33;0.43;;;;;;;11.78;100.00;95032.03;5112668;28;20205;-57
2023/10/26 03:24:18;;;;;;;0.00;0.00;;;;;;;11.78;100.00;95030.19;5112710;28;20205;-57
2023/10/26 03:26:45;;;;;;;0.20;0.10;;;;;;;11.80;100.00;95025.50;5112220;28;20638;-57
2023/10/26 03:29:12;;;;;;;0.20;0.20;;;;;;;11.83;100.00;95025.13;5111875;28;20201;-57
2023/10/26 03:31:40;;;;;;;0.00;0.00;;;;;;;11.87;100.00;95026.41;5111943;28;20201;-58
2023/10/26 03:34:06;;;;;;;1.60;0.20;;;;;;;11.79;100.00;95018.59;5112229;28;20197;-57
2023/10/26 03:36:32;;;;;;;1.67;0.13;;;;;;;11.83;100.00;95017.19;5111913;28;20239;-57
2023/10/26 03:39:00;;;;;;;0.93;0.20;;;;;;;11.80;100.00;95019.38;5112507;28;20566;-57
2023/10/26 03:41:29;;;;;;;0.20;0.20;;;;;;;11.80;100.00;95014.09;5111595;28;20212;-56
2023/10/26 03:43:56;;;;;;;0.70;0.20;;;;;;;11.78;100.00;95001.06;5111600;28;20324;-56
2023/10/26 03:46:23;;;;;;;1.37;0.37;;;;;;;11.79;100.00;95002.72;5111995;28;20212;-57
2023/10/26 03:48:50;;;;;;;0.37;0.10;;;;;;;11.80;100.00;94991.09;5112085;28;20212;-57
2023/10/26 03:51:16;;;;;;;0.20;0.10;;;;;;;11.81;100.00;95000.69;5094531;28;20218;-57
2023/10/26 03:53:44;;;;;;;0.47;0.20;;;;;;;11.81;100.00;95005.97;5112891;28;20311;-58
2023/10/26 03:56:13;;;;;;;0.10;0.10;;;;;;;11.82;100.00;94997.03;5112120;28;20236;-57
2023/10/26 03:58:40;;;;;;;0.03;0.03;;;;;;;11.83;100.00;95003.94;5111789;28;20216;-57
2023/10/26 04:01:06;;;;;;;0.23;0.10;;;;;;;11.86;100.00;95014.19;5112392;28;20208;-56
2023/10/26 04:03:33;;;;;;;0.77;0.07;;;;;;;11.82;100.00;95004.97;5112747;28;20228;-57
2023/10/26 04:05:59;;;;;;;0.27;0.27;;;;;;;11.84;100.00;95010.06;5112179;28;20197;-57
2023/10/26 04:08:26;;;;;;;2.03;0.10;;;;;;;11.82;100.00;95006.81;5112761;28;20557;-58
2023/10/26 04:10:53;;;;;;;0.30;0.30;;;;;;;11.82;100.00;94999.69;5112346;28;20238;-58
2023/10/26 04:13:21;;;;;;;0.10;0.10;;;;;;;11.85;100.00;95007.22;5111570;28;20654;-57
2023/10/26 04:15:49;;;;;;;2.53;0.30;;;;;;;11.86;100.00;95006.22;5111692;28;20209;-58
2023/10/26 04:18:15;;;;;;;0.10;0.10;;;;;;;11.86;100.00;95002.75;5112222;28;20295;-58
2023/10/26 04:20:41;;;;;;;1.80;0.40;;;;;;;11.89;100.00;95005.03;5112236;28;20232;-57
2023/10/26 04:23:08;;;;;;;0.20;0.20;;;;;;;11.88;100.00;95004.19;5111747;28;20642;-57
2023/10/26 04:25:35;;;;;;;0.17;0.10;;;;;;;11.88;100.00;94993.59;5111824;28;20250;-57
2023/10/26 04:28:01;;;;;;;0.17;0.13;;;;;;;11.89;100.00;94994.44;5111192;28;20209;-57
2023/10/26 04:30:30;;;;;;;0.23;0.23;;;;;;;11.89;100.00;95000.56;5111863;28;20205;-57
2023/10/26 04:32:57;;;;;;;1.63;1.40;;;;;;;11.89;100.00;94995.25;5110967;28;20201;-57
2023/10/26 04:35:23;;;;;;;1.60;1.20;;;;;;;11.89;100.00;94986.47;5111287;28;20722;-57
2023/10/26 04:37:50;;;;;;;0.70;0.30;;;;;;;11.89;100.00;94982.00;5110682;28;20228;-57
2023/10/26 04:40:16;;;;;;;0.63;0.20;;;;;;;11.88;100.00;94982.19;5111412;28;20201;-57
2023/10/26 04:42:43;;;;;;;1.00;0.23;;;;;;;11.88;100.00;94975.06;5109940;28;20201;-57
2023/10/26 04:45:10;;;;;;;1.70;0.40;;;;;;;11.90;100.00;94970.38;5110258;28;20241;-57
2023/10/26 04:47:38;;;;;;;1.20;0.57;;;;;;;11.89;100.00;94966.13;5111268;28;20212;-56
2023/10/26 04:50:05;;;;;;;0.20;0.20;;;;;;;11.93;100.00;94967.38;5111207;28;20208;-57
2023/10/26 04:52:32;;;;;;;0.83;0.30;;;;;;;11.93;100.00;94961.25;5111128;28;20216;-57
2023/10/26 04:54:58;;;;;;;0.20;0.20;;;;;;;11.95;100.00;94959.22;5111286;28;20205;-56
2023/10/26 04:57:24;;;;;;;0.33;0.23;;;;;;;11.96;100.00;94958.22;5110135;28;20217;-57
2023/10/26 04:59:51;;;;;;;0.30;0.30;;;;;;;11.97;100.00;94963.31;5110584;28;20216;-58
2023/10/26 05:02:17;;;;;;;1.50;0.40;;;;;;;12.00;100.00;94959.47;5111846;28;20530;-58
2023/10/26 05:04:45;;;;;;;0.53;0.30;;;;;;;12.04;100.00;94962.56;5111738;28;20272;-58
2023/10/26 05:07:12;;;;;;;0.40;0.40;;;;;;;12.02;100.00;94953.97;5110107;28;20224;-58
2023/10/26 05:09:38;;;;;;;0.83;0.10;;;;;;;11.99;100.00;94941.94;5111095;28;20656;-57
2023/10/26 05:12:06;;;;;;;1.03;0.30;;;;;;;12.00;100.00;94948.06;5110205;28;20609;-58
2023/10/26 05:14:32;;;;;;;0.20;0.20;;;;;;;12.02;100.00;94951.31;5110807;28;20204;-58
2023/10/26 05:16:59;;;;;;;0.30;0.30;;;;;;;12.00;100.00;94940.13;5110574;28;20220;-57
2023/10/26 05:19:25;;;;;;;1.50;0.40;;;;;;;12.02;100.00;94943.38;5110901;28;20212;-57
2023/10/26 05:21:53;;;;;;;0.40;0.40;;;;;;;12.04;100.00;94936.06;5110286;28;20201;-57
2023/10/26 05:24:19;;;;;;;1.27;0.30;;;;;;;12.05;100.00;94937.69;5110221;28;20625;-58
2023/10/26 05:26:46;;;;;;;2.60;0.70;;;;;;;13.38;100.00;94933.63;5110079;28;20215;-47
2023/10/26 05:29:12;;;;;;;1.30;0.70;;;;;;;14.48;100.00;94943.63;5110651;28;20201;-48
2023/10/26 05:31:39;;;;;;;0.50;0.40;;;;;;;15.31;100.00;94934.69;5110605;28;20197;-48
2023/10/26 05:34:05;;;;;;;0.60;0.30;;;;;;;15.17;100.00;94927.81;5110446;28;20224;-48
2023/10/26 05:36:32;;;;;;;0.30;0.30;;;;;;;15.71;100.00;94940.63;5110694;28;20229;-47
2023/10/26 05:38:58;;;;;;;1.33;0.20;;;;;;;16.66;100.00;94929.53;5110538;28;20240;-51
2023/10/26 05:41:25;;;;;;;1.52;0.30;;;;;;;16.28;100.00;94926.19;5109995;28;20214;-57
2023/10/26 05:43:52;;;;;;;1.02;0.52;;;;;;;15.27;100.00;94936.97;5110949;28;20239;-57
2023/10/26 05:46:18;;;;;;;0.43;0.40;;;;;;;14.59;100.00;94951.81;5108236;28;20221;-58
2023/10/26 05:48:46;;;;;;;2.72;2.42;;;;;;;14.04;100.00;94941.59;5110057;28;20213;-58
2023/10/26 05:51:13;;;;;;;1.27;1.00;;;;;;;13.72;100.00;94944.06;5110012;28;20296;-57
2023/10/26 05:53:39;;;;;;;0.55;0.47;;;;;;;13.53;100.00;94925.47;5111233;28;20205;-57
2023/10/26 05:56:08;;;;;;;0.20;0.20;;;;;;;13.32;100.00;94939.75;5113678;28;20212;-58
2023/10/26 05:58:34;;;;;;;0.68;0.50;;;;;;;13.08;100.00;94934.94;5113673;28;20597;-57
2023/10/26 06:01:01;;;;;;;1.27;0.35;;;;;;;12.96;100.00;94932.06;5113798;28;20288;-57
2023/10/26 06:03:27;;;;;;;0.75;0.22;;;;;;;12.83;100.00;94924.84;5114370;28;20216;-58
2023/10/26 06:05:59;;;;;;;0.85;0.50;;;;;;;12.80;100.00;94927.91;5113714;28;20213;-57
2023/10/26 06:08:25;;;;;;;0.50;0.33;;;;;;;12.66;100.00;94925.41;5113965;28;20197;-57
2023/10/26 06:10:52;;;;;;;2.73;0.60;;;;;;;12.55;100.00;94924.13;5113726;28;20201;-58
2023/10/26 06:13:20;;;;;;;0.37;0.37;;;;;;;12.48;100.00;94931.22;5113288;28;20205;-58
2023/10/26 06:15:46;;;;;;;0.77;0.60;;;;;;;12.36;100.00;94920.34;5113772;28;20205;-58
2023/10/26 06:18:13;;;;;;;1.43;0.40;;;;;;;12.39;100.00;94921.81;5113668;28;20232;-57
2023/10/26 06:20:40;;;;;;;0.80;0.60;;;;;;;12.40;100.00;94915.47;5113859;28;20213;-57
2023/10/26 06:23:08;;;;;;;0.73;0.30;;;;;;;12.38;100.00;94922.81;5114424;28;20193;-57
2023/10/26 06:25:35;;;;;;;1.20;0.73;;;;;;;12.28;100.00;94914.41;5114171;28;20210;-57
2023/10/26 06:28:04;;;;;;;1.07;0.50;;;;;;;12.24;100.00;94913.16;5113994;28;20209;-57
2023/10/26 06:30:34;;;;;;;2.20;0.70;;;;;;;12.19;100.00;94950.00;5114220;28;20206;-57
2023/10/26 06:33:02;;;;;;;1.20;0.70;;;;;;;12.13;100.00;94941.00;5113666;28;20232;-56
2023/10/26 06:35:28;;;;;;;1.50;0.50;;;;;;;12.14;100.00;94944.50;5113066;28;20216;-57
2023/10/26 06:37:54;;;;;;;0.50;0.50;;;;;;;12.13;100.00;94935.72;5112895;28;20224;-57
2023/10/26 06:40:22;;;;;;;0.57;0.30;;;;;;;12.14;100.00;94928.59;5113092;28;20205;-57
2023/10/26 06:42:48;;;;;;;0.20;0.20;;;;;;;12.09;100.00;94938.94;5113002;28;20216;-58
2023/10/26 06:45:15;;;;;;;0.57;0.37;;;;;;;12.11;100.00;94958.13;5113839;28;20197;-56
2023/10/26 06:47:43;;;;;;;0.67;0.40;;;;;;;12.08;100.00;94954.00;5113445;28;20618;-57
2023/10/26 06:50:10;;;;;;;0.93;0.60;;;;;;;12.08;100.00;94953.22;5113201;28;20212;-57
2023/10/26 06:52:36;;;;;;;0.40;0.40;;;;;;;12.04;100.00;94950.13;5113373;28;20200;-57
2023/10/26 06:55:03;;;;;;;1.33;0.93;;;;;;;12.01;100.00;94947.06;5113064;28;20197;-57
2023/10/26 06:57:33;;;;;;;0.60;0.60;;;;;;;12.01;100.00;94952.34;5112564;28;20544;-58
2023/10/26 07:00:01;;;;;;;2.00;0.60;;;;;;;12.06;100.00;94957.88;5112355;28;20518;-57
2023/10/26 07:02:27;;;;;;;1.73;0.70;;;;;;;12.08;100.00;94950.56;5113388;28;20193;-57
2023/10/26 07:04:55;;;;;;;7.80;3.47;;;;;;;12.09;100.00;94937.13;5112974;28;20302;-57
2023/10/26 07:07:22;;;;;;;7.60;3.33;;;;;;;12.09;100.00;94923.03;5112972;28;20194;-58
2023/10/26 07:09:48;;;;;;;1.73;1.63;;;;;;;12.13;100.00;94916.34;5113329;28;20618;-57
2023/10/26 07:12:17;;;;;;;1.00;1.00;;;;;;;12.16;100.00;94918.59;5113079;28;20193;-58
2023/10/26 07:14:43;;;;;;;0.70;0.70;;;;;;;12.19;100.00;94926.16;5112655;28;20201;-57
2023/10/26 07:17:10;;;;;;;1.80;0.70;;;;;;;12.23;100.00;94922.13;5112728;28;20225;-57
2023/10/26 07:19:38;;;;;;;1.10;0.80;;;;;;;12.24;100.00;94916.63;5113505;28;20617;-57
2023/10/26 07:22:07;;;;;;;0.80;0.70;;;;;;;12.27;100.00;94926.84;5113226;28;20258;-58
2023/10/26 07:24:34;;;;;;;2.03;1.10;;;;;;;12.34;100.00;94929.53;5112821;28;20763;-57
2023/10/26 07:27:01;;;;;;;0.93;0.80;;;;;;;12.32;100.00;94936.88;5112438;28;20539;-57
2023/10/26 07:29:27;;;;;;;1.07;0.80;;;;;;;12.30;100.00;94936.22;5112691;28;20201;-57
2023/10/26 07:31:55;;;;;;;1.07;1.03;;;;;;;12.32;100.00;94939.50;5113682;28;20197;-57
2023/10/26 07:34:21;;;;;;;1.63;0.70;;;;;;;12.36;100.00;94940.75;5114387;28;20209;-57
2023/10/26 07:36:49;;;;;;;1.00;0.90;;;;;;;12.38;100.00;94954.63;5114188;28;20212;-58
2023/10/26 07:39:17;;;;;;;0.70;0.60;;;;;;;12.39;100.00;94946.50;5113647;28;20205;-57
2023/10/26 07:41:44;;;;;;;1.17;0.90;;;;;;;12.45;100.00;94939.56;5113286;28;20638;-57
2023/10/26 07:44:10;;;;;;;0.63;0.50;;;;;;;12.44;100.00;94936.09;5112479;28;20229;-56
2023/10/26 07:46:37;;;;;;;0.40;0.40;;;;;;;12.51;100.00;94933.47;5114309;28;20193;-57
2023/10/26 07:49:04;;;;;;;0.70;0.70;;;;;;;12.55;100.00;94939.22;5113185;28;20969;-57
2023/10/26 07:51:32;;;;;;;1.07;0.73;;;;;;;12.62;100.00;94963.91;5113587;28;20194;-58
2023/10/26 07:53:58;;;;;;;0.83;0.83;;;;;;;12.63;100.00;94958.44;5115214;28;20193;-57
2023/10/26 07:56:26;;;;;;;1.10;1.00;;;;;;;12.70;100.00;94959.28;5113081;28;20197;-58
2023/10/26 07:58:52;;;;;;;1.13;0.90;;;;;;;12.79;100.00;94950.13;5111795;28;20232;-57
2023/10/26 08:01:19;;;;;;;0.50;0.50;;;;;;;12.87;100.00;94965.88;5112465;28;20223;-57
2023/10/26 08:03:45;;;;;;;1.00;0.83;;;;;;;12.93;100.00;94954.47;5114195;28;20206;-58
2023/10/26 08:06:12;;;;;;;1.73;0.53;;;;;;;13.02;100.00;94949.00;5115188;28;20197;-58
2023/10/26 08:08:38;;;;;;;0.40;0.40;;;;;;;13.10;100.00;94932.94;5116538;28;20205;-58
2023/10/26 08:11:09;;;;;;;0.63;0.50;;;;;;;13.22;100.00;94923.34;5117480;28;20205;-57
2023/10/26 08:13:37;;;;;;;0.60;0.60;;;;;;;13.34;100.00;94930.56;5117874;28;20204;-60
2023/10/26 08:16:04;;;;;;;0.67;0.40;;;;;;;13.43;100.00;94923.19;5119010;28;20193;-58
2023/10/26 08:18:31;;;;;;;0.43;0.43;;;;;;;13.53;100.00;94918.31;5119245;28;20228;-57
2023/10/26 08:20:57;;;;;;;0.68;0.50;;;;;;;13.62;100.00;94942.84;5116124;28;20197;-57
2023/10/26 08:23:24;;;;;;;0.70;0.60;;;;;;;13.70;100.00;94947.97;5115446;28;20638;-58
2023/10/26 08:25:52;;;;;;;0.77;0.77;;;;;;;13.74;100.00;94936.72;5116166;28;20213;-58
2023/10/26 08:28:18;;;;;;;0.60;0.60;;;;;;;13.82;100.00;94941.00;5114343;28;20201;-58
2023/10/26 08:30:46;;;;;;;1.33;0.70;;;;;;;13.86;100.00;94944.88;5116429;28;20201;-57
2023/10/26 08:33:12;;;;;;;0.80;0.80;;;;;;;13.92;100.00;94950.19;5112739;28;20205;-57
2023/10/26 08:35:41;;;;;;;0.77;0.60;;;;;;;13.91;100.00;94943.28;5111422;28;20209;-57
2023/10/26 08:38:08;;;;;;;0.98;0.88;;;;;;;13.94;100.00;94942.84;5111210;28;20252;-57
2023/10/26 08:40:34;;;;;;;0.55;0.55;;;;;;;14.03;100.00;94951.41;5112184;28;20295;-58
2023/10/26 08:43:05;;;;;;;0.50;0.47;;;;;;;14.08;100.00;94969.41;5110468;28;20216;-57
2023/10/26 08:45:33;;;;;;;2.90;0.60;;;;;;;14.18;100.00;94975.13;5113045;28;21340;-57
2023/10/26 08:48:02;;;;;;;0.75;0.50;;;;;;;14.26;100.00;94967.78;5121650;28;20205;-57
2023/10/26 08:50:28;;;;;;;0.37;0.30;;;;;;;14.24;100.00;94961.84;5122724;28;20215;-58
2023/10/26 08:52:57;;;;;;;2.33;0.90;;;;;;;14.32;100.00;94976.75;5111842;28;20220;-57
2023/10/26 08:55:23;;;;;;;0.43;0.40;;;;;;;14.37;100.00;94974.34;5111956;28;20221;-57
2023/10/26 08:57:51;;;;;;;0.55;0.55;;;;;;;14.39;100.00;94970.44;5110749;28;20235;-56
2023/10/26 09:00:18;;;;;;;0.93;0.85;;;;;;;14.41;100.00;94962.28;5111698;28;20205;-58
2023/10/26 09:02:45;;;;;;;2.53;1.10;;;;;;;14.51;100.00;94978.59;5111748;28;20205;-58
2023/10/26 09:05:13;;;;;;;1.73;0.60;;;;;;;14.59;100.00;94973.06;5111041;28;20201;-57
2023/10/26 09:07:39;;;;;;;2.22;0.63;;;;;;;14.68;100.00;94977.13;5111566;28;20201;-57
2023/10/26 09:10:06;;;;;;;0.47;0.40;;;;;;;14.75;100.00;94993.91;5110891;28;20629;-58
2023/10/26 09:12:33;;;;;;;0.50;0.50;;;;;;;14.81;100.00;94992.22;5110984;28;20201;-57
2023/10/26 09:15:00;;;;;;;1.10;0.43;;;;;;;14.84;100.00;94997.16;5110513;28;20590;-58
2023/10/26 09:17:27;;;;;;;1.73;0.68;;;;;;;15.02;100.00;94988.50;5111093;28;20228;-57
2023/10/26 09:19:54;;;;;;;0.93;0.40;;;;;;;15.20;100.00;94989.44;5111214;28;20534;-56
2023/10/26 09:22:36;;;;;;;0.32;0.30;;;;;;;15.34;100.00;94982.19;5111433;28;20633;-57
2023/10/26 09:25:10;;;;;;;0.70;0.52;;;;;;;15.43;100.00;94972.94;5111218;28;20253;-57
2023/10/26 09:27:37;;;;;;;0.80;0.60;;;;;;;15.53;100.00;94957.34;5113043;28;20193;-57
2023/10/26 09:30:05;;;;;;;0.35;0.28;;;;;;;15.58;100.00;94957.53;5115253;28;20189;-57
2023/10/26 09:32:32;;;;;;;0.52;0.40;;;;;;;15.62;100.00;94945.41;5115950;28;20189;-57
2023/10/26 09:34:58;;;;;;;0.60;0.57;;;;;;;15.61;100.00;94945.63;5115233;28;20535;-58
2023/10/26 09:37:26;;;;;;;0.40;0.40;;;;;;;15.61;100.00;94956.28;5115114;28;20660;-57
2023/10/26 09:39:53;;;;;;;0.55;0.43;;;;;;;15.60;100.00;94970.63;5115109;28;20201;-56
2023/10/26 09:42:20;;;;;;;0.60;0.60;;;;;;;15.71;100.00;94983.25;5115851;28;20232;-57
2023/10/26 09:44:47;;;;;;;0.50;0.50;;;;;;;15.66;100.00;94991.88;5114278;28;20316;-57
2023/10/26 09:47:13;;;;;;;0.63;0.55;;;;;;;15.69;100.00;94996.81;5115343;28;20731;-56
2023/10/26 09:49:40;;;;;;;3.50;0.93;;;;;;;15.62;100.00;94998.69;5115358;28;20633;-58
2023/10/26 09:52:06;;;;;;;1.95;0.65;;;;;;;15.61;100.00;94993.56;5115447;28;20200;-57
2023/10/26 09:54:36;;;;;;;1.15;0.57;;;;;;;15.57;100.00;94997.69;5114328;28;20205;-57
2023/10/26 09:57:07;;;;;;;1.00;0.77;;;;;;;15.66;100.00;94994.56;5114639;28;20223;-58
2023/10/26 09:59:34;;;;;;;1.45;0.47;;;;;;;15.70;100.00;94987.75;5114045;28;20256;-58
2023/10/26 10:02:12;;;;;;;0.50;0.50;;;;;;;15.71;100.00;94984.06;5114709;28;20292;-57
2023/10/26 10:04:39;;;;;;;0.60;0.60;;;;;;;15.67;100.00;94995.38;5114681;28;20526;-57
2023/10/26 10:07:06;;;;;;;0.88;0.63;;;;;;;15.64;100.00;94991.28;5114667;28;20205;-58
2023/10/26 10:09:33;;;;;;;0.52;0.43;;;;;;;15.62;100.00;94987.22;5115312;28;20217;-57
2023/10/26 10:12:33;;;;;;;0.52;0.32;;;;;;;15.57;100.00;94985.19;5115353;28;20201;-58
2023/10/26 10:15:01;;;;;;;0.40;0.40;;;;;;;15.55;100.00;94983.78;5121854;28;20228;-57
2023/10/26 10:18:02;;;;;;;1.15;0.40;;;;;;;15.50;100.00;94994.25;5136750;28;20188;-57
2023/10/26 10:20:30;;;;;;;1.60;0.50;;;;;;;15.40;100.00;94986.69;5139385;28;20206;-58
2023/10/26 10:22:59;;;;;;;0.63;0.50;;;;;;;15.43;100.00;94978.28;5122555;28;20570;-57
2023/10/26 10:26:00;;;;;;;1.73;0.40;;;;;;;15.35;100.00;94983.84;5116103;28;20242;-57
2023/10/26 10:28:42;;;;;;;0.40;0.38;;;;;;;15.50;100.00;94979.09;5115397;28;20567;-58
2023/10/26 10:31:09;;;;;;;0.55;0.40;;;;;;;15.48;100.00;94967.00;5115682;28;20194;-57
2023/10/26 10:33:41;;;;;;;0.60;0.45;;;;;;;15.41;100.00;94967.81;5115951;28;20292;-58
2023/10/26 10:36:11;;;;;;;0.55;0.50;;;;;;;15.40;100.00;94962.72;5115740;28;20201;-57
2023/10/26 10:38:37;;;;;;;0.75;0.60;;;;;;;15.48;100.00;94978.44;5115430;28;20545;-57
2023/10/26 10:41:10;;;;;;;1.15;0.50;;;;;;;15.46;100.00;94964.53;5115158;28;20220;-57
2023/10/26 10:43:43;;;;;;;0.50;0.50;;;;;;;15.58;100.00;94967.38;5114820;28;20692;-57
2023/10/26 10:46:11;;;;;;;0.63;0.35;;;;;;;15.61;100.00;94969.59;5128621;28;20201;-57
2023/10/26 10:48:55;;;;;;;1.10;0.30;;;;;;;15.53;100.00;94957.34;5108663;28;20208;-57
2023/10/26 10:51:21;;;;;;;0.68;0.35;;;;;;;15.67;100.00;94982.88;5125217;28;20216;-58
2023/10/26 10:53:50;;;;;;;0.70;0.40;;;;;;;15.61;100.00;94967.75;5127977;28;20197;-57
2023/10/26 10:56:17;;;;;;;0.70;0.55;;;;;;;15.69;100.00;94964.84;5126300;28;20205;-57
2023/10/26 10:58:45;;;;;;;0.65;0.32;;;;;;;15.57;100.00;94953.22;5128294;28;20213;-57
2023/10/26 11:01:11;;;;;;;0.95;0.28;;;;;;;15.64;100.00;94956.66;5129843;28;20201;-57
2023/10/26 11:03:38;;;;;;;0.95;0.43;;;;;;;15.63;100.00;94943.53;5124249;28;20201;-57
2023/10/26 11:06:05;;;;;;;0.43;0.43;;;;;;;15.60;100.00;94934.13;5129531;28;20201;-56
2023/10/26 11:08:38;;;;;;;1.42;0.47;;;;;;;15.60;100.00;94933.31;5118943;28;20833;-58
2023/10/26 11:11:05;;;;;;;0.30;0.30;;;;;;;15.74;100.00;94930.34;5114357;28;20193;-56
2023/10/26 11:13:32;;;;;;;1.20;0.38;;;;;;;15.65;100.00;94933.50;5113418;28;20205;-57
2023/10/26 11:15:59;;;;;;;0.50;0.50;;;;;;;15.62;100.00;94931.28;5114211;28;20201;-57
2023/10/26 11:18:26;;;;;;;0.47;0.35;;;;;;;15.64;100.00;94929.19;5113343;28;21444;-56
2023/10/26 11:20:53;;;;;;;0.75;0.50;;;;;;;15.67;100.00;94926.09;5113263;28;20553;-57
2023/10/26 11:23:23;;;;;;;0.40;0.40;;;;;;;15.74;100.00;94909.03;5113236;28;20244;-56
2023/10/26 11:25:50;;;;;;;0.50;0.50;;;;;;;15.68;100.00;94909.91;5113739;28;20201;-56